El Salvador, El Salvador

3:43 AM CST on July 26, 2016 (GMT -0600)
El Salvador International | | Change Station

Elev 82 ft 13.44 °N, 89.06 °W | Updated -397 second ago

Thunderstorms and Rain
Thunderstorm Rain
77 °F
Feels Like 77 °F
N
17
Wind Variable Wind from South
Gusts 33 mph

Today
High -- | Low -- °F
--% Chance of Precip.
Yesterday
High -- | Low -- °F
Precip. -- in
Pressure 29.83 in
Visibility 3.7 miles
Clouds Scattered Clouds 1000 ft
Scattered Clouds 1200 ft
Overcast 2100 ft
Scattered Clouds 3000 ft
Dew Point 73 °F
Humidity 89%
Rainfall 0.00 in
Snow Depth Not available.
5:39 AM 6:25 PM
Waning Gibbous, 56% visible
METAR MSLP 260950Z 17015G29KT 050V2000 6000 TSRA SCT010 SCT012 OVC021 SCT030CB 25/23 Q1010 A2985
Pressure 29.83 in
Visibility 3.7 miles
Clouds Scattered Clouds 1000 ft
Scattered Clouds 1200 ft
Overcast 2100 ft
Scattered Clouds 3000 ft
Dew Point 73 °F
Humidity 89%
Rainfall 0.00 in
Snow Depth Not available.
5:39 AM 6:25 PM
Waning Gibbous, 56% visible
METAR MSLP 260950Z 17015G29KT 050V2000 6000 TSRA SCT010 SCT012 OVC021 SCT030CB 25/23 Q1010 A2985

10-Day Weather Forecast

No radar image for this location.
×

Almanac

Astronomy

Jul. 26, 2016 Rise Set
Actual Time
Civil Twilight
Nautical Twilight
Astronomical Twilight
Moon
Length of Visible Light
Length of Day
Tomorrow will be .
, % of the Moon is Illuminated

Today's Extremes

Country Highs Country Lows

Community

WunderPhotos

Upload Photos

1,927,557 photos uploaded!

WunderBlog® & News

Nearby

Air Quality

  Air Quality AQ Index Pollutant
Not available.

Snow Depth

Station Depth Elevation

Earthquake Activity

City Distance Mag. Time & Date
Minimum magnitude displayed is 2.5.

Coastal Water Temperatures

Place Temperature

Stations

Nearby Weather Stations

Station Location Temp. Windchill Dew Point Humidity Wind Precip. Elev Updated Type